sensor_id;sensor_type;location;lat;lon;timestamp;P1;durP1;ratioP1;P2;durP2;ratioP2
12962;SDS011;6546;49.882;8.666;2022-12-18T00:02:21;42.60;;;22.10;;
12962;SDS011;6546;49.882;8.666;2022-12-18T00:04:49;46.40;;;23.60;;
12962;SDS011;6546;49.882;8.666;2022-12-18T00:07:17;43.10;;;22.13;;
12962;SDS011;6546;49.882;8.666;2022-12-18T00:09:44;40.67;;;21.73;;
12962;SDS011;6546;49.882;8.666;2022-12-18T00:12:12;44.07;;;22.80;;
12962;SDS011;6546;49.882;8.666;2022-12-18T00:14:39;38.27;;;20.83;;
12962;SDS011;6546;49.882;8.666;2022-12-18T00:17:05;42.90;;;21.00;;
12962;SDS011;6546;49.882;8.666;2022-12-18T00:19:32;40.83;;;21.63;;
12962;SDS011;6546;49.882;8.666;2022-12-18T00:22:00;39.77;;;21.07;;
12962;SDS011;6546;49.882;8.666;2022-12-18T00:24:27;38.00;;;21.60;;
12962;SDS011;6546;49.882;8.666;2022-12-18T00:26:54;38.57;;;20.50;;
12962;SDS011;6546;49.882;8.666;2022-12-18T00:29:21;42.33;;;21.90;;
12962;SDS011;6546;49.882;8.666;2022-12-18T00:31:49;43.27;;;21.30;;
12962;SDS011;6546;49.882;8.666;2022-12-18T00:34:16;42.57;;;22.27;;
12962;SDS011;6546;49.882;8.666;2022-12-18T00:36:42;40.80;;;21.87;;
12962;SDS011;6546;49.882;8.666;2022-12-18T00:39:11;40.30;;;21.87;;
12962;SDS011;6546;49.882;8.666;2022-12-18T00:41:38;40.83;;;20.90;;
12962;SDS011;6546;49.882;8.666;2022-12-18T00:44:22;38.80;;;20.63;;
12962;SDS011;6546;49.882;8.666;2022-12-18T00:46:49;45.10;;;21.70;;
12962;SDS011;6546;49.882;8.666;2022-12-18T00:49:16;37.40;;;21.33;;
12962;SDS011;6546;49.882;8.666;2022-12-18T00:51:44;42.67;;;21.47;;
12962;SDS011;6546;49.882;8.666;2022-12-18T00:54:13;42.30;;;21.10;;
12962;SDS011;6546;49.882;8.666;2022-12-18T00:56:40;44.27;;;21.77;;
12962;SDS011;6546;49.882;8.666;2022-12-18T00:59:07;43.77;;;22.40;;
12962;SDS011;6546;49.882;8.666;2022-12-18T01:01:34;42.20;;;20.87;;
12962;SDS011;6546;49.882;8.666;2022-12-18T01:04:01;42.23;;;21.33;;
12962;SDS011;6546;49.882;8.666;2022-12-18T01:06:29;41.67;;;21.90;;
12962;SDS011;6546;49.882;8.666;2022-12-18T01:08:56;40.33;;;22.30;;
12962;SDS011;6546;49.882;8.666;2022-12-18T01:11:25;41.13;;;22.70;;
12962;SDS011;6546;49.882;8.666;2022-12-18T01:13:52;42.87;;;22.57;;
12962;SDS011;6546;49.882;8.666;2022-12-18T01:16:20;43.67;;;21.83;;
12962;SDS011;6546;49.882;8.666;2022-12-18T01:18:50;43.27;;;22.07;;
12962;SDS011;6546;49.882;8.666;2022-12-18T01:21:18;43.27;;;21.73;;
12962;SDS011;6546;49.882;8.666;2022-12-18T01:23:45;43.13;;;22.57;;
12962;SDS011;6546;49.882;8.666;2022-12-18T01:26:12;40.63;;;22.00;;
12962;SDS011;6546;49.882;8.666;2022-12-18T01:28:43;41.07;;;23.10;;
12962;SDS011;6546;49.882;8.666;2022-12-18T01:31:11;44.27;;;22.87;;
12962;SDS011;6546;49.882;8.666;2022-12-18T01:33:39;46.80;;;24.03;;
12962;SDS011;6546;49.882;8.666;2022-12-18T01:36:06;44.80;;;23.13;;
12962;SDS011;6546;49.882;8.666;2022-12-18T01:38:33;45.93;;;23.43;;
12962;SDS011;6546;49.882;8.666;2022-12-18T01:41:00;41.10;;;24.10;;
12962;SDS011;6546;49.882;8.666;2022-12-18T01:46:14;46.77;;;23.10;;
12962;SDS011;6546;49.882;8.666;2022-12-18T01:48:41;41.20;;;22.40;;
12962;SDS011;6546;49.882;8.666;2022-12-18T01:51:10;41.83;;;22.63;;
12962;SDS011;6546;49.882;8.666;2022-12-18T01:53:38;43.87;;;22.60;;
12962;SDS011;6546;49.882;8.666;2022-12-18T01:56:11;39.47;;;21.50;;
12962;SDS011;6546;49.882;8.666;2022-12-18T01:58:41;39.93;;;22.63;;
12962;SDS011;6546;49.882;8.666;2022-12-18T02:01:15;43.03;;;22.90;;
12962;SDS011;6546;49.882;8.666;2022-12-18T02:03:43;40.10;;;21.27;;
12962;SDS011;6546;49.882;8.666;2022-12-18T02:06:12;41.53;;;22.33;;
12962;SDS011;6546;49.882;8.666;2022-12-18T02:08:45;41.20;;;22.13;;
12962;SDS011;6546;49.882;8.666;2022-12-18T02:11:22;38.63;;;22.13;;
12962;SDS011;6546;49.882;8.666;2022-12-18T02:13:59;36.47;;;21.50;;
12962;SDS011;6546;49.882;8.666;2022-12-18T02:16:37;39.63;;;22.77;;
12962;SDS011;6546;49.882;8.666;2022-12-18T02:19:16;41.50;;;22.80;;
12962;SDS011;6546;49.882;8.666;2022-12-18T02:21:55;44.80;;;22.97;;
12962;SDS011;6546;49.882;8.666;2022-12-18T02:24:32;41.37;;;21.50;;
12962;SDS011;6546;49.882;8.666;2022-12-18T02:27:02;42.77;;;22.57;;
12962;SDS011;6546;49.882;8.666;2022-12-18T02:29:33;44.63;;;22.30;;
12962;SDS011;6546;49.882;8.666;2022-12-18T02:32:05;37.57;;;21.27;;
12962;SDS011;6546;49.882;8.666;2022-12-18T02:34:36;42.03;;;22.30;;
12962;SDS011;6546;49.882;8.666;2022-12-18T02:37:05;46.53;;;22.80;;
12962;SDS011;6546;49.882;8.666;2022-12-18T02:39:35;42.80;;;22.10;;
12962;SDS011;6546;49.882;8.666;2022-12-18T02:42:06;40.10;;;21.40;;
12962;SDS011;6546;49.882;8.666;2022-12-18T02:44:33;44.33;;;23.20;;
12962;SDS011;6546;49.882;8.666;2022-12-18T02:47:00;40.20;;;22.33;;
12962;SDS011;6546;49.882;8.666;2022-12-18T02:49:30;38.87;;;22.10;;
12962;SDS011;6546;49.882;8.666;2022-12-18T02:52:12;45.37;;;23.00;;
12962;SDS011;6546;49.882;8.666;2022-12-18T02:54:48;36.80;;;22.13;;
12962;SDS011;6546;49.882;8.666;2022-12-18T02:57:27;42.63;;;22.13;;
12962;SDS011;6546;49.882;8.666;2022-12-18T03:00:02;37.53;;;22.17;;
12962;SDS011;6546;49.882;8.666;2022-12-18T03:02:33;39.93;;;22.40;;
12962;SDS011;6546;49.882;8.666;2022-12-18T03:05:07;42.43;;;22.30;;
12962;SDS011;6546;49.882;8.666;2022-12-18T03:07:40;46.17;;;23.67;;
12962;SDS011;6546;49.882;8.666;2022-12-18T03:10:12;42.37;;;21.60;;
12962;SDS011;6546;49.882;8.666;2022-12-18T03:12:42;39.17;;;20.73;;
12962;SDS011;6546;49.882;8.666;2022-12-18T03:15:13;38.67;;;20.50;;
12962;SDS011;6546;49.882;8.666;2022-12-18T03:17:44;40.77;;;22.73;;
12962;SDS011;6546;49.882;8.666;2022-12-18T03:20:16;41.20;;;21.93;;
12962;SDS011;6546;49.882;8.666;2022-12-18T03:22:46;38.20;;;20.60;;
12962;SDS011;6546;49.882;8.666;2022-12-18T03:25:17;37.80;;;20.90;;
12962;SDS011;6546;49.882;8.666;2022-12-18T03:27:47;39.60;;;21.70;;
12962;SDS011;6546;49.882;8.666;2022-12-18T03:30:18;39.47;;;21.70;;
12962;SDS011;6546;49.882;8.666;2022-12-18T03:32:46;40.87;;;21.73;;
12962;SDS011;6546;49.882;8.666;2022-12-18T03:35:17;37.30;;;22.13;;
12962;SDS011;6546;49.882;8.666;2022-12-18T03:37:47;39.17;;;20.03;;
12962;SDS011;6546;49.882;8.666;2022-12-18T03:40:14;39.67;;;21.03;;
12962;SDS011;6546;49.882;8.666;2022-12-18T03:42:43;36.43;;;21.03;;
12962;SDS011;6546;49.882;8.666;2022-12-18T03:45:18;41.43;;;21.07;;
12962;SDS011;6546;49.882;8.666;2022-12-18T03:47:50;36.37;;;20.47;;
12962;SDS011;6546;49.882;8.666;2022-12-18T03:50:26;37.23;;;20.40;;
12962;SDS011;6546;49.882;8.666;2022-12-18T03:53:03;41.53;;;21.53;;
12962;SDS011;6546;49.882;8.666;2022-12-18T03:55:43;40.10;;;21.13;;
12962;SDS011;6546;49.882;8.666;2022-12-18T03:58:13;35.13;;;20.20;;
12962;SDS011;6546;49.882;8.666;2022-12-18T04:00:44;42.10;;;21.23;;
12962;SDS011;6546;49.882;8.666;2022-12-18T04:03:11;42.50;;;21.73;;
12962;SDS011;6546;49.882;8.666;2022-12-18T04:05:40;34.90;;;19.53;;
12962;SDS011;6546;49.882;8.666;2022-12-18T04:08:12;38.20;;;21.43;;
12962;SDS011;6546;49.882;8.666;2022-12-18T04:10:41;37.73;;;20.43;;
12962;SDS011;6546;49.882;8.666;2022-12-18T04:13:08;36.83;;;21.03;;
12962;SDS011;6546;49.882;8.666;2022-12-18T04:15:37;41.67;;;22.50;;
12962;SDS011;6546;49.882;8.666;2022-12-18T04:18:04;39.70;;;22.03;;
12962;SDS011;6546;49.882;8.666;2022-12-18T04:20:31;42.73;;;22.33;;
12962;SDS011;6546;49.882;8.666;2022-12-18T04:22:58;38.80;;;22.77;;
12962;SDS011;6546;49.882;8.666;2022-12-18T04:25:26;39.87;;;21.63;;
12962;SDS011;6546;49.882;8.666;2022-12-18T04:27:52;43.83;;;21.97;;
12962;SDS011;6546;49.882;8.666;2022-12-18T04:30:22;38.13;;;21.73;;
12962;SDS011;6546;49.882;8.666;2022-12-18T04:32:50;42.00;;;22.47;;
12962;SDS011;6546;49.882;8.666;2022-12-18T04:35:17;38.10;;;21.63;;
12962;SDS011;6546;49.882;8.666;2022-12-18T04:37:44;39.87;;;22.00;;
12962;SDS011;6546;49.882;8.666;2022-12-18T04:40:11;40.27;;;22.50;;
12962;SDS011;6546;49.882;8.666;2022-12-18T04:42:38;43.03;;;22.90;;
12962;SDS011;6546;49.882;8.666;2022-12-18T04:45:05;41.17;;;22.20;;
12962;SDS011;6546;49.882;8.666;2022-12-18T04:47:33;37.67;;;21.87;;
12962;SDS011;6546;49.882;8.666;2022-12-18T04:50:00;40.60;;;22.03;;
12962;SDS011;6546;49.882;8.666;2022-12-18T04:52:27;38.43;;;22.03;;
12962;SDS011;6546;49.882;8.666;2022-12-18T04:54:54;38.10;;;22.87;;
12962;SDS011;6546;49.882;8.666;2022-12-18T04:57:20;42.00;;;22.73;;
12962;SDS011;6546;49.882;8.666;2022-12-18T04:59:47;37.87;;;22.07;;
12962;SDS011;6546;49.882;8.666;2022-12-18T05:02:13;40.67;;;22.50;;
12962;SDS011;6546;49.882;8.666;2022-12-18T05:04:40;44.20;;;22.57;;
12962;SDS011;6546;49.882;8.666;2022-12-18T05:07:08;34.13;;;20.93;;
12962;SDS011;6546;49.882;8.666;2022-12-18T05:09:34;36.40;;;20.80;;
12962;SDS011;6546;49.882;8.666;2022-12-18T05:12:01;41.10;;;22.63;;
12962;SDS011;6546;49.882;8.666;2022-12-18T05:14:27;38.47;;;21.67;;
12962;SDS011;6546;49.882;8.666;2022-12-18T05:16:54;40.40;;;22.47;;
12962;SDS011;6546;49.882;8.666;2022-12-18T05:19:21;39.77;;;22.20;;
12962;SDS011;6546;49.882;8.666;2022-12-18T05:21:47;39.30;;;22.13;;
12962;SDS011;6546;49.882;8.666;2022-12-18T05:24:15;38.43;;;21.73;;
12962;SDS011;6546;49.882;8.666;2022-12-18T05:26:41;40.43;;;22.87;;
12962;SDS011;6546;49.882;8.666;2022-12-18T05:29:08;39.87;;;22.33;;
12962;SDS011;6546;49.882;8.666;2022-12-18T05:31:37;44.97;;;22.53;;
12962;SDS011;6546;49.882;8.666;2022-12-18T05:34:03;40.67;;;22.83;;
12962;SDS011;6546;49.882;8.666;2022-12-18T05:36:30;37.13;;;22.10;;
12962;SDS011;6546;49.882;8.666;2022-12-18T05:38:57;38.93;;;21.83;;
12962;SDS011;6546;49.882;8.666;2022-12-18T05:41:24;35.93;;;21.53;;
12962;SDS011;6546;49.882;8.666;2022-12-18T05:43:51;37.30;;;22.50;;
12962;SDS011;6546;49.882;8.666;2022-12-18T05:46:18;37.63;;;21.47;;
12962;SDS011;6546;49.882;8.666;2022-12-18T05:48:45;37.70;;;21.70;;
12962;SDS011;6546;49.882;8.666;2022-12-18T05:51:13;42.87;;;23.53;;
12962;SDS011;6546;49.882;8.666;2022-12-18T05:53:43;36.33;;;21.83;;
12962;SDS011;6546;49.882;8.666;2022-12-18T05:56:11;37.53;;;22.30;;
12962;SDS011;6546;49.882;8.666;2022-12-18T05:58:41;43.40;;;22.23;;
12962;SDS011;6546;49.882;8.666;2022-12-18T06:01:08;39.90;;;21.53;;
12962;SDS011;6546;49.882;8.666;2022-12-18T06:03:37;39.33;;;22.23;;
12962;SDS011;6546;49.882;8.666;2022-12-18T06:06:14;40.00;;;21.03;;
12962;SDS011;6546;49.882;8.666;2022-12-18T06:08:41;37.07;;;21.10;;
12962;SDS011;6546;49.882;8.666;2022-12-18T06:11:08;36.93;;;21.17;;
12962;SDS011;6546;49.882;8.666;2022-12-18T06:13:35;39.60;;;20.43;;
12962;SDS011;6546;49.882;8.666;2022-12-18T06:16:03;36.00;;;22.60;;
12962;SDS011;6546;49.882;8.666;2022-12-18T06:18:30;39.07;;;22.27;;
12962;SDS011;6546;49.882;8.666;2022-12-18T06:20:57;39.40;;;22.07;;
12962;SDS011;6546;49.882;8.666;2022-12-18T06:23:24;37.70;;;22.00;;
12962;SDS011;6546;49.882;8.666;2022-12-18T06:25:51;43.00;;;22.13;;
12962;SDS011;6546;49.882;8.666;2022-12-18T06:28:18;38.00;;;22.40;;
12962;SDS011;6546;49.882;8.666;2022-12-18T06:30:45;39.00;;;22.13;;
12962;SDS011;6546;49.882;8.666;2022-12-18T06:33:13;37.23;;;21.33;;
12962;SDS011;6546;49.882;8.666;2022-12-18T06:35:40;37.50;;;21.47;;
12962;SDS011;6546;49.882;8.666;2022-12-18T06:38:07;37.10;;;22.33;;
12962;SDS011;6546;49.882;8.666;2022-12-18T06:40:33;37.70;;;21.60;;
12962;SDS011;6546;49.882;8.666;2022-12-18T06:43:00;36.63;;;21.83;;
12962;SDS011;6546;49.882;8.666;2022-12-18T06:45:26;40.33;;;21.97;;
12962;SDS011;6546;49.882;8.666;2022-12-18T06:47:53;39.13;;;21.97;;
12962;SDS011;6546;49.882;8.666;2022-12-18T06:50:21;39.63;;;21.33;;
12962;SDS011;6546;49.882;8.666;2022-12-18T06:52:47;39.60;;;22.77;;
12962;SDS011;6546;49.882;8.666;2022-12-18T06:55:14;33.23;;;21.20;;
12962;SDS011;6546;49.882;8.666;2022-12-18T06:57:44;37.77;;;22.50;;
12962;SDS011;6546;49.882;8.666;2022-12-18T07:00:11;43.27;;;23.43;;
12962;SDS011;6546;49.882;8.666;2022-12-18T07:02:38;41.73;;;22.43;;
12962;SDS011;6546;49.882;8.666;2022-12-18T07:05:05;41.47;;;22.37;;
12962;SDS011;6546;49.882;8.666;2022-12-18T07:07:34;38.73;;;21.63;;
12962;SDS011;6546;49.882;8.666;2022-12-18T07:10:01;39.50;;;22.80;;
12962;SDS011;6546;49.882;8.666;2022-12-18T07:12:28;40.03;;;21.77;;
12962;SDS011;6546;49.882;8.666;2022-12-18T07:14:55;37.47;;;22.50;;
12962;SDS011;6546;49.882;8.666;2022-12-18T07:17:22;38.83;;;21.30;;
12962;SDS011;6546;49.882;8.666;2022-12-18T07:19:48;38.33;;;22.17;;
12962;SDS011;6546;49.882;8.666;2022-12-18T07:22:31;40.03;;;23.70;;
12962;SDS011;6546;49.882;8.666;2022-12-18T07:24:58;42.17;;;23.23;;
12962;SDS011;6546;49.882;8.666;2022-12-18T07:27:24;35.40;;;21.40;;
12962;SDS011;6546;49.882;8.666;2022-12-18T07:29:51;40.10;;;22.80;;
12962;SDS011;6546;49.882;8.666;2022-12-18T07:32:17;40.73;;;22.77;;
12962;SDS011;6546;49.882;8.666;2022-12-18T07:34:47;36.97;;;21.53;;
12962;SDS011;6546;49.882;8.666;2022-12-18T07:37:16;38.53;;;22.93;;
12962;SDS011;6546;49.882;8.666;2022-12-18T07:39:44;41.07;;;22.53;;
12962;SDS011;6546;49.882;8.666;2022-12-18T07:42:11;40.10;;;22.23;;
12962;SDS011;6546;49.882;8.666;2022-12-18T07:44:55;36.20;;;21.73;;
12962;SDS011;6546;49.882;8.666;2022-12-18T07:47:22;40.27;;;23.17;;
12962;SDS011;6546;49.882;8.666;2022-12-18T07:49:48;40.00;;;21.27;;
12962;SDS011;6546;49.882;8.666;2022-12-18T07:52:15;41.00;;;23.07;;
12962;SDS011;6546;49.882;8.666;2022-12-18T07:54:42;40.17;;;22.57;;
12962;SDS011;6546;49.882;8.666;2022-12-18T07:57:15;36.97;;;22.67;;
12962;SDS011;6546;49.882;8.666;2022-12-18T07:59:42;33.77;;;21.50;;
12962;SDS011;6546;49.882;8.666;2022-12-18T08:02:08;40.47;;;22.13;;
12962;SDS011;6546;49.882;8.666;2022-12-18T08:04:35;42.67;;;23.47;;
12962;SDS011;6546;49.882;8.666;2022-12-18T08:07:02;41.50;;;22.37;;
12962;SDS011;6546;49.882;8.666;2022-12-18T08:09:29;39.90;;;23.53;;
12962;SDS011;6546;49.882;8.666;2022-12-18T08:11:55;40.70;;;23.00;;
12962;SDS011;6546;49.882;8.666;2022-12-18T08:14:23;40.10;;;24.03;;
12962;SDS011;6546;49.882;8.666;2022-12-18T08:16:49;35.43;;;21.93;;
12962;SDS011;6546;49.882;8.666;2022-12-18T08:19:16;36.63;;;22.33;;
12962;SDS011;6546;49.882;8.666;2022-12-18T08:21:43;38.77;;;22.33;;
12962;SDS011;6546;49.882;8.666;2022-12-18T08:24:09;41.73;;;23.10;;
12962;SDS011;6546;49.882;8.666;2022-12-18T08:26:37;38.90;;;22.30;;
12962;SDS011;6546;49.882;8.666;2022-12-18T08:29:03;43.60;;;22.53;;
12962;SDS011;6546;49.882;8.666;2022-12-18T08:31:31;38.87;;;22.13;;
12962;SDS011;6546;49.882;8.666;2022-12-18T08:33:58;36.60;;;21.13;;
12962;SDS011;6546;49.882;8.666;2022-12-18T08:36:25;37.87;;;21.37;;
12962;SDS011;6546;49.882;8.666;2022-12-18T08:38:52;36.97;;;22.37;;
12962;SDS011;6546;49.882;8.666;2022-12-18T08:41:18;39.40;;;22.00;;
12962;SDS011;6546;49.882;8.666;2022-12-18T08:43:45;36.97;;;22.07;;
12962;SDS011;6546;49.882;8.666;2022-12-18T08:46:33;40.27;;;21.53;;
12962;SDS011;6546;49.882;8.666;2022-12-18T08:49:04;38.90;;;22.20;;
12962;SDS011;6546;49.882;8.666;2022-12-18T08:51:31;33.80;;;21.37;;
12962;SDS011;6546;49.882;8.666;2022-12-18T08:53:59;41.13;;;23.43;;
12962;SDS011;6546;49.882;8.666;2022-12-18T08:56:28;40.97;;;22.40;;
12962;SDS011;6546;49.882;8.666;2022-12-18T08:58:55;40.40;;;22.70;;
12962;SDS011;6546;49.882;8.666;2022-12-18T09:01:22;43.30;;;23.13;;
12962;SDS011;6546;49.882;8.666;2022-12-18T09:03:53;40.63;;;23.13;;
12962;SDS011;6546;49.882;8.666;2022-12-18T09:06:21;42.30;;;24.83;;
12962;SDS011;6546;49.882;8.666;2022-12-18T09:08:54;43.93;;;24.87;;
12962;SDS011;6546;49.882;8.666;2022-12-18T09:11:21;40.67;;;24.30;;
12962;SDS011;6546;49.882;8.666;2022-12-18T09:13:53;45.17;;;24.40;;
12962;SDS011;6546;49.882;8.666;2022-12-18T09:16:20;42.40;;;23.87;;
12962;SDS011;6546;49.882;8.666;2022-12-18T09:18:48;45.17;;;23.57;;
12962;SDS011;6546;49.882;8.666;2022-12-18T09:21:16;42.70;;;24.13;;
12962;SDS011;6546;49.882;8.666;2022-12-18T09:23:48;47.57;;;25.00;;
12962;SDS011;6546;49.882;8.666;2022-12-18T09:26:16;43.07;;;24.40;;
12962;SDS011;6546;49.882;8.666;2022-12-18T09:28:43;45.53;;;26.10;;
12962;SDS011;6546;49.882;8.666;2022-12-18T09:31:10;45.83;;;25.60;;
12962;SDS011;6546;49.882;8.666;2022-12-18T09:33:42;47.80;;;25.73;;
12962;SDS011;6546;49.882;8.666;2022-12-18T09:36:11;43.50;;;24.23;;
12962;SDS011;6546;49.882;8.666;2022-12-18T09:38:40;42.73;;;23.13;;
12962;SDS011;6546;49.882;8.666;2022-12-18T09:41:14;42.30;;;25.07;;
12962;SDS011;6546;49.882;8.666;2022-12-18T09:43:53;40.57;;;23.90;;
12962;SDS011;6546;49.882;8.666;2022-12-18T09:46:26;43.47;;;25.27;;
12962;SDS011;6546;49.882;8.666;2022-12-18T09:48:57;46.57;;;25.07;;
12962;SDS011;6546;49.882;8.666;2022-12-18T09:51:27;47.70;;;25.60;;
12962;SDS011;6546;49.882;8.666;2022-12-18T09:54:03;45.90;;;25.43;;
12962;SDS011;6546;49.882;8.666;2022-12-18T09:56:35;44.03;;;24.60;;
12962;SDS011;6546;49.882;8.666;2022-12-18T09:59:03;45.23;;;25.00;;
12962;SDS011;6546;49.882;8.666;2022-12-18T10:01:31;47.47;;;25.93;;
12962;SDS011;6546;49.882;8.666;2022-12-18T10:03:58;48.30;;;25.23;;
12962;SDS011;6546;49.882;8.666;2022-12-18T10:06:26;47.50;;;26.23;;
12962;SDS011;6546;49.882;8.666;2022-12-18T10:09:01;45.93;;;25.17;;
12962;SDS011;6546;49.882;8.666;2022-12-18T10:11:43;47.03;;;25.83;;
12962;SDS011;6546;49.882;8.666;2022-12-18T10:14:18;48.07;;;25.77;;
12962;SDS011;6546;49.882;8.666;2022-12-18T10:16:53;47.90;;;26.63;;
12962;SDS011;6546;49.882;8.666;2022-12-18T10:19:37;45.83;;;24.90;;
12962;SDS011;6546;49.882;8.666;2022-12-18T10:22:16;42.47;;;24.73;;
12962;SDS011;6546;49.882;8.666;2022-12-18T10:24:54;44.80;;;25.40;;
12962;SDS011;6546;49.882;8.666;2022-12-18T10:27:26;52.33;;;25.03;;
12962;SDS011;6546;49.882;8.666;2022-12-18T10:29:53;52.27;;;27.03;;
12962;SDS011;6546;49.882;8.666;2022-12-18T10:32:21;48.00;;;26.00;;
12962;SDS011;6546;49.882;8.666;2022-12-18T10:34:50;46.97;;;25.83;;
12962;SDS011;6546;49.882;8.666;2022-12-18T10:37:19;44.30;;;25.00;;
12962;SDS011;6546;49.882;8.666;2022-12-18T10:39:47;50.97;;;26.17;;
12962;SDS011;6546;49.882;8.666;2022-12-18T10:42:39;50.40;;;25.17;;
12962;SDS011;6546;49.882;8.666;2022-12-18T10:45:12;45.67;;;23.37;;
12962;SDS011;6546;49.882;8.666;2022-12-18T10:47:41;46.40;;;23.93;;
12962;SDS011;6546;49.882;8.666;2022-12-18T10:50:16;47.77;;;23.20;;
12962;SDS011;6546;49.882;8.666;2022-12-18T10:52:55;52.10;;;24.87;;
12962;SDS011;6546;49.882;8.666;2022-12-18T10:55:26;50.43;;;24.60;;
12962;SDS011;6546;49.882;8.666;2022-12-18T10:58:04;46.10;;;23.50;;
12962;SDS011;6546;49.882;8.666;2022-12-18T11:00:43;49.83;;;25.10;;
12962;SDS011;6546;49.882;8.666;2022-12-18T11:03:28;45.33;;;23.07;;
12962;SDS011;6546;49.882;8.666;2022-12-18T11:06:05;51.10;;;24.63;;
12962;SDS011;6546;49.882;8.666;2022-12-18T11:08:37;45.77;;;23.47;;
12962;SDS011;6546;49.882;8.666;2022-12-18T11:11:14;44.50;;;24.03;;
12962;SDS011;6546;49.882;8.666;2022-12-18T11:13:51;52.47;;;24.47;;
12962;SDS011;6546;49.882;8.666;2022-12-18T11:16:24;45.60;;;23.90;;
12962;SDS011;6546;49.882;8.666;2022-12-18T11:18:52;43.37;;;22.90;;
12962;SDS011;6546;49.882;8.666;2022-12-18T11:21:19;53.87;;;24.57;;
12962;SDS011;6546;49.882;8.666;2022-12-18T11:23:46;48.87;;;22.77;;
12962;SDS011;6546;49.882;8.666;2022-12-18T11:26:17;49.00;;;24.00;;
12962;SDS011;6546;49.882;8.666;2022-12-18T11:28:44;52.23;;;24.80;;
12962;SDS011;6546;49.882;8.666;2022-12-18T11:31:23;47.23;;;22.13;;
12962;SDS011;6546;49.882;8.666;2022-12-18T11:33:59;47.37;;;24.30;;
12962;SDS011;6546;49.882;8.666;2022-12-18T11:36:38;49.13;;;23.27;;
12962;SDS011;6546;49.882;8.666;2022-12-18T11:39:10;45.20;;;22.93;;
12962;SDS011;6546;49.882;8.666;2022-12-18T11:41:47;45.53;;;22.90;;
12962;SDS011;6546;49.882;8.666;2022-12-18T11:44:40;49.73;;;23.93;;
12962;SDS011;6546;49.882;8.666;2022-12-18T11:47:13;50.57;;;24.13;;
12962;SDS011;6546;49.882;8.666;2022-12-18T11:50:00;46.43;;;23.70;;
12962;SDS011;6546;49.882;8.666;2022-12-18T11:52:30;52.97;;;25.33;;
12962;SDS011;6546;49.882;8.666;2022-12-18T11:55:05;53.37;;;24.60;;
12962;SDS011;6546;49.882;8.666;2022-12-18T11:57:41;49.77;;;23.43;;
12962;SDS011;6546;49.882;8.666;2022-12-18T12:00:20;51.40;;;24.27;;
12962;SDS011;6546;49.882;8.666;2022-12-18T12:03:06;48.33;;;23.97;;
12962;SDS011;6546;49.882;8.666;2022-12-18T12:05:50;48.13;;;23.57;;
12962;SDS011;6546;49.882;8.666;2022-12-18T12:08:31;54.60;;;23.87;;
12962;SDS011;6546;49.882;8.666;2022-12-18T12:11:15;49.73;;;24.00;;
12962;SDS011;6546;49.882;8.666;2022-12-18T12:13:55;51.47;;;24.50;;
12962;SDS011;6546;49.882;8.666;2022-12-18T12:16:35;50.87;;;23.13;;
12962;SDS011;6546;49.882;8.666;2022-12-18T12:19:15;47.10;;;23.03;;
12962;SDS011;6546;49.882;8.666;2022-12-18T12:21:54;52.47;;;24.43;;
12962;SDS011;6546;49.882;8.666;2022-12-18T12:24:32;48.03;;;24.00;;
12962;SDS011;6546;49.882;8.666;2022-12-18T12:27:07;54.17;;;25.00;;
12962;SDS011;6546;49.882;8.666;2022-12-18T12:29:50;53.20;;;24.70;;
12962;SDS011;6546;49.882;8.666;2022-12-18T12:32:31;46.47;;;23.57;;
12962;SDS011;6546;49.882;8.666;2022-12-18T12:35:21;49.23;;;22.60;;
12962;SDS011;6546;49.882;8.666;2022-12-18T12:37:58;50.87;;;23.50;;
12962;SDS011;6546;49.882;8.666;2022-12-18T12:40:38;48.83;;;24.17;;
12962;SDS011;6546;49.882;8.666;2022-12-18T12:43:16;50.33;;;23.53;;
12962;SDS011;6546;49.882;8.666;2022-12-18T12:45:57;45.87;;;21.90;;
12962;SDS011;6546;49.882;8.666;2022-12-18T12:48:32;52.73;;;23.67;;
12962;SDS011;6546;49.882;8.666;2022-12-18T12:51:11;48.67;;;24.20;;
12962;SDS011;6546;49.882;8.666;2022-12-18T12:53:41;46.73;;;22.67;;
12962;SDS011;6546;49.882;8.666;2022-12-18T12:56:10;53.07;;;23.50;;
12962;SDS011;6546;49.882;8.666;2022-12-18T12:58:41;51.47;;;26.27;;
12962;SDS011;6546;49.882;8.666;2022-12-18T13:01:25;55.10;;;24.93;;
12962;SDS011;6546;49.882;8.666;2022-12-18T13:04:02;52.67;;;24.30;;
12962;SDS011;6546;49.882;8.666;2022-12-18T13:06:41;49.00;;;23.53;;
12962;SDS011;6546;49.882;8.666;2022-12-18T13:09:12;52.37;;;23.80;;
12962;SDS011;6546;49.882;8.666;2022-12-18T13:11:39;46.17;;;23.43;;
12962;SDS011;6546;49.882;8.666;2022-12-18T13:14:29;47.60;;;23.87;;
12962;SDS011;6546;49.882;8.666;2022-12-18T13:17:15;48.70;;;23.77;;
12962;SDS011;6546;49.882;8.666;2022-12-18T13:20:11;46.83;;;22.83;;
12962;SDS011;6546;49.882;8.666;2022-12-18T13:22:41;52.13;;;24.20;;
12962;SDS011;6546;49.882;8.666;2022-12-18T13:28:05;56.93;;;23.57;;
12962;SDS011;6546;49.882;8.666;2022-12-18T13:30:41;51.57;;;24.00;;
12962;SDS011;6546;49.882;8.666;2022-12-18T13:36:04;52.13;;;23.53;;
12962;SDS011;6546;49.882;8.666;2022-12-18T13:38:45;54.03;;;23.07;;
12962;SDS011;6546;49.882;8.666;2022-12-18T13:41:21;46.83;;;22.50;;
12962;SDS011;6546;49.882;8.666;2022-12-18T13:43:51;47.07;;;22.73;;
12962;SDS011;6546;49.882;8.666;2022-12-18T13:46:28;48.17;;;21.93;;
12962;SDS011;6546;49.882;8.666;2022-12-18T13:49:00;47.83;;;23.57;;
12962;SDS011;6546;49.882;8.666;2022-12-18T13:51:28;46.60;;;22.63;;
12962;SDS011;6546;49.882;8.666;2022-12-18T13:53:58;51.30;;;23.63;;
12962;SDS011;6546;49.882;8.666;2022-12-18T13:56:28;48.80;;;23.27;;
12962;SDS011;6546;49.882;8.666;2022-12-18T13:59:03;48.57;;;23.20;;
12962;SDS011;6546;49.882;8.666;2022-12-18T14:01:32;47.27;;;22.00;;
12962;SDS011;6546;49.882;8.666;2022-12-18T14:04:11;48.70;;;22.67;;
12962;SDS011;6546;49.882;8.666;2022-12-18T14:06:41;46.63;;;22.57;;
12962;SDS011;6546;49.882;8.666;2022-12-18T14:09:10;45.80;;;23.00;;
12962;SDS011;6546;49.882;8.666;2022-12-18T14:11:40;47.13;;;21.33;;
12962;SDS011;6546;49.882;8.666;2022-12-18T14:14:13;48.23;;;21.17;;
12962;SDS011;6546;49.882;8.666;2022-12-18T14:16:41;44.73;;;22.43;;
12962;SDS011;6546;49.882;8.666;2022-12-18T14:19:08;43.80;;;21.83;;
12962;SDS011;6546;49.882;8.666;2022-12-18T14:21:40;48.00;;;23.03;;
12962;SDS011;6546;49.882;8.666;2022-12-18T14:24:21;42.17;;;22.40;;
12962;SDS011;6546;49.882;8.666;2022-12-18T14:27:19;45.47;;;21.73;;
12962;SDS011;6546;49.882;8.666;2022-12-18T14:30:30;49.27;;;22.30;;
12962;SDS011;6546;49.882;8.666;2022-12-18T14:33:04;45.00;;;22.80;;
12962;SDS011;6546;49.882;8.666;2022-12-18T14:35:35;44.80;;;21.77;;
12962;SDS011;6546;49.882;8.666;2022-12-18T14:38:19;41.03;;;21.40;;
12962;SDS011;6546;49.882;8.666;2022-12-18T14:40:59;46.37;;;21.70;;
12962;SDS011;6546;49.882;8.666;2022-12-18T14:44:24;46.53;;;21.60;;
12962;SDS011;6546;49.882;8.666;2022-12-18T14:47:21;43.90;;;21.10;;
12962;SDS011;6546;49.882;8.666;2022-12-18T14:50:23;43.27;;;21.07;;
12962;SDS011;6546;49.882;8.666;2022-12-18T14:53:21;47.63;;;22.17;;
12962;SDS011;6546;49.882;8.666;2022-12-18T14:56:00;44.53;;;21.27;;
12962;SDS011;6546;49.882;8.666;2022-12-18T14:58:33;43.50;;;21.00;;
12962;SDS011;6546;49.882;8.666;2022-12-18T15:01:19;41.30;;;21.67;;
12962;SDS011;6546;49.882;8.666;2022-12-18T15:04:00;44.50;;;22.07;;
12962;SDS011;6546;49.882;8.666;2022-12-18T15:06:37;45.23;;;22.50;;
12962;SDS011;6546;49.882;8.666;2022-12-18T15:09:22;44.43;;;21.70;;